Time;durP1;ratioP1;P1;durP2;ratioP2;P2;SDS_P1;SDS_P2;PMS_P1;PMS_P2;Temp;Humidity;BMP_temperature;BMP_pressure;BME280_temperature;BME280_humidity;BME280_pressure;Samples;Min_cycle;Max_cycle;Signal;HPM_P1;HPM_P2
2019/05/14 00:02:12;;;;;;;1.40;1.30;;;;;;;19.17;42.36;102116.08;;;;-54
2019/05/14 00:05:12;;;;;;;1.37;1.27;;;;;;;19.17;42.32;102112.22;;;;-54
2019/05/14 00:08:12;;;;;;;1.40;1.30;;;;;;;19.16;42.35;102106.73;;;;-54
2019/05/14 00:11:12;;;;;;;1.40;1.30;;;;;;;19.16;42.32;102105.12;;;;-57
2019/05/14 00:14:12;;;;;;;1.37;1.27;;;;;;;19.16;42.36;102099.59;;;;-56
2019/05/14 00:17:12;;;;;;;1.30;1.20;;;;;;;19.15;42.35;102095.50;;;;-56
2019/05/14 00:20:12;;;;;;;1.37;1.27;;;;;;;19.15;42.38;102094.05;;;;-57
2019/05/14 00:23:12;;;;;;;1.13;1.10;;;;;;;19.16;42.34;102093.45;;;;-54
2019/05/14 00:26:12;;;;;;;1.30;1.20;;;;;;;19.14;42.40;102091.52;;;;-54
2019/05/14 00:29:12;;;;;;;1.41;1.31;;;;;;;19.15;42.37;102089.52;;;;-54
2019/05/14 00:32:12;;;;;;;1.35;1.21;;;;;;;19.14;42.40;102088.23;;;;-54
2019/05/14 00:35:12;;;;;;;1.36;1.26;;;;;;;19.14;42.40;102084.98;;;;-56
2019/05/14 00:38:12;;;;;;;1.33;1.20;;;;;;;19.14;42.39;102077.62;;;;-54
2019/05/14 00:41:12;;;;;;;1.30;1.20;;;;;;;19.12;42.43;102076.09;;;;-54
2019/05/14 00:44:13;;;;;;;1.21;1.11;;;;;;;19.12;42.40;102079.61;;;;-54
2019/05/14 00:47:12;;;;;;;1.61;1.30;;;;;;;19.12;42.40;102078.39;;;;-54
2019/05/14 00:50:12;;;;;;;1.23;1.19;;;;;;;19.10;42.44;102070.48;;;;-54
2019/05/14 00:53:12;;;;;;;1.47;1.37;;;;;;;19.11;42.45;102074.91;;;;-54
2019/05/14 00:56:12;;;;;;;1.40;1.30;;;;;;;19.11;42.43;102073.06;;;;-58
2019/05/14 00:59:12;;;;;;;1.30;1.20;;;;;;;19.10;42.43;102073.44;;;;-57
2019/05/14 01:02:12;;;;;;;1.35;1.25;;;;;;;19.11;42.44;102069.53;;;;-57
2019/05/14 01:05:12;;;;;;;1.29;1.19;;;;;;;19.09;42.46;102065.00;;;;-57
2019/05/14 01:08:12;;;;;;;1.40;1.30;;;;;;;19.09;42.48;102069.58;;;;-57
2019/05/14 01:11:12;;;;;;;1.30;1.20;;;;;;;19.09;42.48;102066.39;;;;-57
2019/05/14 01:14:12;;;;;;;1.39;1.29;;;;;;;19.09;42.42;102066.12;;;;-54
2019/05/14 01:17:12;;;;;;;1.31;1.21;;;;;;;19.08;42.49;102068.22;;;;-56
2019/05/14 01:20:12;;;;;;;1.44;1.34;;;;;;;19.08;42.42;102067.94;;;;-54
2019/05/14 01:23:12;;;;;;;1.33;1.23;;;;;;;19.08;42.46;102068.65;;;;-54
2019/05/14 01:26:12;;;;;;;1.40;1.30;;;;;;;19.07;42.46;102062.34;;;;-57
2019/05/14 01:29:12;;;;;;;1.40;1.30;;;;;;;19.06;42.43;102062.94;;;;-57
2019/05/14 01:32:12;;;;;;;1.29;1.19;;;;;;;19.06;42.49;102066.12;;;;-57
2019/05/14 01:35:12;;;;;;;1.37;1.27;;;;;;;19.06;42.47;102063.78;;;;-53
2019/05/14 01:38:12;;;;;;;1.30;1.20;;;;;;;19.06;42.49;102060.80;;;;-54
2019/05/14 01:41:12;;;;;;;1.40;1.30;;;;;;;19.05;42.49;102065.50;;;;-57
2019/05/14 01:44:12;;;;;;;1.31;1.21;;;;;;;19.05;42.46;102064.09;;;;-57
2019/05/14 01:47:12;;;;;;;1.30;1.20;;;;;;;19.05;42.40;102065.94;;;;-54
2019/05/14 01:50:12;;;;;;;1.30;1.20;;;;;;;19.05;42.46;102063.77;;;;-57
2019/05/14 01:53:12;;;;;;;1.38;1.28;;;;;;;19.04;42.45;102059.06;;;;-57
2019/05/14 01:56:12;;;;;;;1.27;1.17;;;;;;;19.04;42.51;102058.67;;;;-54
2019/05/14 01:59:12;;;;;;;1.40;1.30;;;;;;;19.03;42.45;102056.20;;;;-57
2019/05/14 02:02:12;;;;;;;1.39;1.29;;;;;;;19.03;42.50;102049.70;;;;-57
2019/05/14 02:05:12;;;;;;;1.25;1.17;;;;;;;19.02;42.49;102046.80;;;;-57
2019/05/14 02:08:12;;;;;;;1.35;1.20;;;;;;;19.02;42.42;102045.11;;;;-57
2019/05/14 02:11:12;;;;;;;1.39;1.29;;;;;;;19.01;42.48;102046.17;;;;-57
2019/05/14 02:14:12;;;;;;;1.30;1.20;;;;;;;19.02;42.49;102054.17;;;;-57
2019/05/14 02:17:12;;;;;;;1.30;1.20;;;;;;;19.01;42.49;102052.42;;;;-58
2019/05/14 02:20:12;;;;;;;1.13;1.12;;;;;;;19.01;42.44;102049.84;;;;-54
2019/05/14 02:23:12;;;;;;;1.34;1.24;;;;;;;19.01;42.55;102049.23;;;;-54
2019/05/14 02:26:12;;;;;;;1.40;1.30;;;;;;;19.00;42.50;102045.16;;;;-57
2019/05/14 02:29:12;;;;;;;1.42;1.30;;;;;;;19.00;42.51;102042.91;;;;-54
2019/05/14 02:32:12;;;;;;;1.30;1.20;;;;;;;18.99;42.46;102040.34;;;;-57
2019/05/14 02:35:12;;;;;;;1.32;1.22;;;;;;;19.00;42.52;102039.78;;;;-57
2019/05/14 02:38:12;;;;;;;1.35;1.25;;;;;;;18.99;42.51;102038.64;;;;-57
2019/05/14 02:41:12;;;;;;;1.25;1.17;;;;;;;18.98;42.56;102041.44;;;;-57
2019/05/14 02:44:12;;;;;;;1.30;1.20;;;;;;;18.98;42.54;102038.81;;;;-57
2019/05/14 02:47:12;;;;;;;1.35;1.25;;;;;;;18.98;42.49;102036.41;;;;-57
2019/05/14 02:50:12;;;;;;;1.40;1.30;;;;;;;18.98;42.54;102038.80;;;;-54
2019/05/14 02:53:12;;;;;;;1.29;1.20;;;;;;;18.97;42.55;102034.05;;;;-54
2019/05/14 02:56:12;;;;;;;1.21;1.20;;;;;;;18.97;42.51;102033.22;;;;-57
2019/05/14 02:59:12;;;;;;;1.32;1.22;;;;;;;18.97;42.56;102029.13;;;;-57
2019/05/14 03:02:12;;;;;;;1.40;1.20;;;;;;;18.96;42.53;102023.05;;;;-57
2019/05/14 03:05:12;;;;;;;1.34;1.24;;;;;;;18.96;42.54;102027.55;;;;-55
2019/05/14 03:08:12;;;;;;;1.30;1.20;;;;;;;18.96;42.56;102028.96;;;;-57
2019/05/14 03:11:12;;;;;;;1.30;1.20;;;;;;;18.94;42.54;102025.67;;;;-57
2019/05/14 03:14:12;;;;;;;1.30;1.20;;;;;;;18.95;42.50;102026.75;;;;-57
2019/05/14 03:17:12;;;;;;;1.25;1.20;;;;;;;18.94;42.50;102025.17;;;;-57
2019/05/14 03:20:12;;;;;;;1.40;1.30;;;;;;;18.95;42.52;102029.03;;;;-57
2019/05/14 03:23:12;;;;;;;1.49;1.39;;;;;;;18.94;42.51;102028.41;;;;-57
2019/05/14 03:26:12;;;;;;;1.30;1.20;;;;;;;18.94;42.54;102028.12;;;;-57
2019/05/14 03:29:12;;;;;;;1.39;1.29;;;;;;;18.93;42.53;102029.52;;;;-57
2019/05/14 03:32:12;;;;;;;1.39;1.29;;;;;;;18.93;42.49;102030.45;;;;-56
2019/05/14 03:35:12;;;;;;;1.38;1.28;;;;;;;18.92;42.50;102022.02;;;;-57
2019/05/14 03:38:12;;;;;;;1.34;1.24;;;;;;;18.93;42.50;102020.69;;;;-57
2019/05/14 03:41:12;;;;;;;1.51;1.30;;;;;;;18.94;42.50;102022.71;;;;-57
2019/05/14 03:44:12;;;;;;;1.42;1.32;;;;;;;18.95;42.52;102020.66;;;;-54
2019/05/14 03:47:12;;;;;;;1.40;1.30;;;;;;;18.96;42.49;102020.59;;;;-57
2019/05/14 03:50:12;;;;;;;1.55;1.32;;;;;;;18.98;42.49;102015.38;;;;-57
2019/05/14 03:53:12;;;;;;;1.32;1.22;;;;;;;19.00;42.54;102010.27;;;;-57
2019/05/14 03:56:12;;;;;;;2.24;1.30;;;;;;;19.03;42.48;102011.32;;;;-57
2019/05/14 03:59:12;;;;;;;1.30;1.20;;;;;;;19.07;42.49;102011.55;;;;-54
2019/05/14 04:02:12;;;;;;;1.31;1.21;;;;;;;19.13;42.48;102005.33;;;;-57
2019/05/14 04:05:12;;;;;;;1.40;1.30;;;;;;;19.18;42.52;102003.03;;;;-54
2019/05/14 04:08:12;;;;;;;1.35;1.25;;;;;;;19.24;42.51;102003.42;;;;-57
2019/05/14 04:11:12;;;;;;;1.33;1.23;;;;;;;19.30;42.53;102001.14;;;;-58
2019/05/14 04:14:12;;;;;;;1.40;1.30;;;;;;;19.35;42.55;101998.55;;;;-58
2019/05/14 04:17:12;;;;;;;1.30;1.20;;;;;;;19.40;42.59;101994.59;;;;-55
2019/05/14 04:20:12;;;;;;;1.32;1.22;;;;;;;19.46;42.56;101993.80;;;;-54
2019/05/14 04:23:12;;;;;;;1.43;1.33;;;;;;;19.51;42.63;101994.36;;;;-55
2019/05/14 04:26:12;;;;;;;1.40;1.30;;;;;;;19.55;42.66;101991.12;;;;-55
2019/05/14 04:29:12;;;;;;;1.49;1.25;;;;;;;19.60;42.62;101986.42;;;;-54
2019/05/14 04:32:12;;;;;;;1.19;1.13;;;;;;;19.63;42.59;101985.92;;;;-57
2019/05/14 04:35:12;;;;;;;1.40;1.30;;;;;;;19.67;42.59;101986.19;;;;-58
2019/05/14 04:38:12;;;;;;;1.74;1.34;;;;;;;19.70;42.67;101989.02;;;;-54
2019/05/14 04:41:12;;;;;;;1.40;1.30;;;;;;;19.74;42.65;101994.28;;;;-58
2019/05/14 04:44:12;;;;;;;1.41;1.31;;;;;;;19.78;42.61;101993.27;;;;-58
2019/05/14 04:47:12;;;;;;;1.42;1.29;;;;;;;19.83;42.59;101995.06;;;;-54
2019/05/14 04:50:12;;;;;;;1.36;1.26;;;;;;;19.88;42.54;101995.61;;;;-54
2019/05/14 04:53:12;;;;;;;1.49;1.39;;;;;;;19.91;42.53;101999.16;;;;-55
2019/05/14 04:56:12;;;;;;;1.44;1.34;;;;;;;19.96;42.51;101994.94;;;;-58
2019/05/14 04:59:11;;;;;;;1.23;1.17;;;;;;;19.98;42.41;101997.75;;;;-58
2019/05/14 05:02:12;;;;;;;1.38;1.28;;;;;;;20.00;42.44;102002.07;;;;-57
2019/05/14 05:05:12;;;;;;;1.35;1.25;;;;;;;20.05;42.36;101997.25;;;;-54
2019/05/14 05:08:12;;;;;;;1.40;1.30;;;;;;;20.06;42.46;102002.80;;;;-57
2019/05/14 05:11:12;;;;;;;1.36;1.26;;;;;;;20.09;42.38;102009.44;;;;-57
2019/05/14 05:14:12;;;;;;;1.39;1.29;;;;;;;20.10;42.38;102009.67;;;;-58
2019/05/14 05:17:12;;;;;;;1.41;1.31;;;;;;;20.15;42.26;102014.46;;;;-58
2019/05/14 05:20:12;;;;;;;1.40;1.30;;;;;;;20.14;42.33;102008.38;;;;-57
2019/05/14 05:23:12;;;;;;;1.30;1.20;;;;;;;20.15;42.35;102009.78;;;;-54
2019/05/14 05:26:12;;;;;;;1.42;1.32;;;;;;;20.17;42.37;102003.83;;;;-54
2019/05/14 05:29:12;;;;;;;1.40;1.30;;;;;;;20.17;42.37;102004.83;;;;-55
2019/05/14 05:32:12;;;;;;;1.33;1.23;;;;;;;20.17;42.30;102000.85;;;;-54
2019/05/14 05:35:12;;;;;;;1.49;1.39;;;;;;;20.19;42.28;102003.39;;;;-57
2019/05/14 05:38:12;;;;;;;1.17;1.17;;;;;;;20.20;42.33;102002.63;;;;-54
2019/05/14 05:41:12;;;;;;;1.50;1.40;;;;;;;20.21;42.30;102006.53;;;;-57
2019/05/14 05:44:12;;;;;;;1.40;1.30;;;;;;;20.22;42.21;102009.69;;;;-58
2019/05/14 05:47:12;;;;;;;1.39;1.29;;;;;;;20.23;42.22;102007.45;;;;-57
2019/05/14 05:50:12;;;;;;;1.34;1.24;;;;;;;20.23;42.25;102005.16;;;;-55
2019/05/14 05:53:12;;;;;;;1.40;1.30;;;;;;;20.24;42.19;102004.45;;;;-54
2019/05/14 05:56:12;;;;;;;1.36;1.26;;;;;;;20.23;42.24;101999.07;;;;-55
2019/05/14 05:59:12;;;;;;;1.39;1.29;;;;;;;20.25;42.15;101997.25;;;;-54
2019/05/14 06:02:12;;;;;;;1.46;1.36;;;;;;;20.25;42.20;101989.31;;;;-54
2019/05/14 06:05:12;;;;;;;2.52;1.65;;;;;;;20.26;41.58;101989.48;;;;-48
2019/05/14 06:08:14;;;;;;;4.21;1.75;;;;;;;20.26;41.72;101995.24;;;;-54
2019/05/14 06:11:12;;;;;;;2.05;1.85;;;;;;;20.26;40.81;101988.20;;;;-53
2019/05/14 06:14:12;;;;;;;7.44;2.05;;;;;;;20.21;40.03;101995.37;;;;-54
2019/05/14 06:17:12;;;;;;;6.34;1.89;;;;;;;20.24;40.96;101998.92;;;;-57
2019/05/14 06:20:12;;;;;;;2.73;1.66;;;;;;;20.22;40.96;101995.54;;;;-64
2019/05/14 06:23:12;;;;;;;2.99;1.71;;;;;;;20.23;41.06;101992.31;;;;-62
2019/05/14 06:26:12;;;;;;;4.73;1.80;;;;;;;20.25;41.07;101991.83;;;;-60
2019/05/14 06:29:12;;;;;;;5.23;1.72;;;;;;;20.27;41.15;101991.12;;;;-52
2019/05/14 06:32:12;;;;;;;5.17;1.67;;;;;;;20.28;41.16;101986.48;;;;-52
2019/05/14 06:35:12;;;;;;;4.48;1.72;;;;;;;20.30;41.20;101983.76;;;;-52
2019/05/14 06:38:12;;;;;;;3.45;1.61;;;;;;;20.30;41.25;101982.98;;;;-52
2019/05/14 06:41:12;;;;;;;3.76;1.61;;;;;;;20.30;41.29;101982.47;;;;-52
2019/05/14 06:44:12;;;;;;;4.63;1.86;;;;;;;20.30;41.31;101983.59;;;;-53
2019/05/14 06:47:12;;;;;;;2.74;1.65;;;;;;;20.29;41.36;101980.34;;;;-54
2019/05/14 06:50:12;;;;;;;3.07;1.61;;;;;;;20.30;41.42;101977.56;;;;-52
2019/05/14 06:53:12;;;;;;;2.63;1.63;;;;;;;20.29;41.40;101974.64;;;;-52
2019/05/14 06:56:12;;;;;;;2.48;1.62;;;;;;;20.29;41.46;101978.55;;;;-52
2019/05/14 06:59:11;;;;;;;2.39;1.61;;;;;;;20.29;41.43;101974.47;;;;-63
2019/05/14 07:02:12;;;;;;;3.02;1.70;;;;;;;20.29;41.50;101978.44;;;;-52
2019/05/14 07:05:12;;;;;;;3.09;1.49;;;;;;;20.29;41.45;101975.53;;;;-60
2019/05/14 07:08:12;;;;;;;2.92;1.65;;;;;;;20.30;41.41;101976.77;;;;-52
2019/05/14 07:11:12;;;;;;;3.13;1.72;;;;;;;20.31;41.44;101974.44;;;;-52
2019/05/14 07:14:12;;;;;;;2.56;1.74;;;;;;;20.31;41.51;101977.12;;;;-54
2019/05/14 07:17:12;;;;;;;2.11;1.65;;;;;;;20.31;41.50;101976.95;;;;-53
2019/05/14 07:20:12;;;;;;;2.30;1.56;;;;;;;20.33;41.54;101972.89;;;;-53
2019/05/14 07:23:12;;;;;;;2.19;1.44;;;;;;;20.33;41.49;101972.55;;;;-52
2019/05/14 07:26:12;;;;;;;1.91;1.52;;;;;;;20.37;41.35;101974.27;;;;-52
2019/05/14 07:29:12;;;;;;;2.15;1.50;;;;;;;20.38;41.32;101974.17;;;;-52
2019/05/14 07:32:12;;;;;;;1.90;1.47;;;;;;;20.35;41.17;101972.30;;;;-52
2019/05/14 07:35:12;;;;;;;3.10;1.55;;;;;;;20.36;41.31;101977.73;;;;-52
2019/05/14 07:38:12;;;;;;;2.80;1.47;;;;;;;20.36;41.31;101974.16;;;;-53
2019/05/14 07:41:12;;;;;;;5.14;1.53;;;;;;;20.38;41.38;101976.12;;;;-53
2019/05/14 07:44:12;;;;;;;1.73;1.49;;;;;;;20.39;41.42;101974.06;;;;-52
2019/05/14 07:47:12;;;;;;;1.97;1.57;;;;;;;20.40;41.42;101962.20;;;;-52
2019/05/14 07:50:12;;;;;;;1.69;1.59;;;;;;;20.41;41.50;101961.61;;;;-52
2019/05/14 07:53:12;;;;;;;1.50;1.40;;;;;;;20.42;41.54;101960.56;;;;-62
2019/05/14 07:56:12;;;;;;;2.30;1.50;;;;;;;20.44;41.46;101956.16;;;;-61
2019/05/14 07:59:12;;;;;;;1.88;1.46;;;;;;;20.46;41.52;101948.50;;;;-62
2019/05/14 08:02:12;;;;;;;2.07;1.60;;;;;;;20.47;41.52;101946.72;;;;-61
2019/05/14 08:05:12;;;;;;;1.81;1.55;;;;;;;20.48;41.56;101943.39;;;;-62
2019/05/14 08:08:12;;;;;;;1.69;1.45;;;;;;;20.50;41.52;101943.91;;;;-63
2019/05/14 08:11:12;;;;;;;2.03;1.40;;;;;;;20.50;41.47;101934.95;;;;-62
2019/05/14 08:17:47;;;;;;;1.77;1.40;;;;;;;20.76;41.30;101924.69;;;;-42
2019/05/14 08:20:47;;;;;;;1.78;1.50;;;;;;;20.83;41.16;101922.20;;;;-47
2019/05/14 08:23:47;;;;;;;2.14;1.50;;;;;;;20.90;41.09;101920.23;;;;-45
2019/05/14 08:42:05;;;;;;;1.87;1.59;;;;;;;21.10;40.83;101900.09;;;;-42
2019/05/14 08:48:04;;;;;;;1.85;1.50;;;;;;;21.13;40.79;101906.83;;;;-42
2019/05/14 08:51:05;;;;;;;1.40;1.30;;;;;;;21.14;40.76;101899.27;;;;-43
2019/05/14 08:58:07;;;;;;;1.77;1.39;;;;;;;21.15;40.74;101893.73;;;;-43
2019/05/14 09:08:32;;;;;;;1.69;1.43;;;;;;;21.19;40.63;101888.94;;;;-43
2019/05/14 09:11:33;;;;;;;1.48;1.38;;;;;;;21.19;40.63;101875.60;;;;-44
2019/05/14 09:14:33;;;;;;;1.51;1.30;;;;;;;21.19;40.68;101879.98;;;;-43
2019/05/14 09:17:33;;;;;;;1.58;1.37;;;;;;;21.20;40.58;101873.72;;;;-42
2019/05/14 09:47:11;;;;;;;1.45;1.30;;;;;;;21.24;40.47;101868.06;;;;-45
2019/05/14 09:50:11;;;;;;;1.63;1.41;;;;;;;21.22;40.45;101868.80;;;;-43
2019/05/14 09:53:11;;;;;;;1.35;1.25;;;;;;;21.23;40.50;101868.17;;;;-45
2019/05/14 09:56:11;;;;;;;1.50;1.40;;;;;;;21.21;40.41;101866.66;;;;-52
2019/05/14 09:59:10;;;;;;;1.89;1.30;;;;;;;21.20;40.47;101865.15;;;;-40
2019/05/14 10:02:11;;;;;;;1.77;1.33;;;;;;;21.19;40.40;101869.56;;;;-40
2019/05/14 10:05:12;;;;;;;1.45;1.35;;;;;;;21.20;40.50;101865.81;;;;-40
2019/05/14 10:08:10;;;;;;;1.39;1.29;;;;;;;21.19;40.50;101868.27;;;;-44
2019/05/14 10:11:11;;;;;;;1.39;1.29;;;;;;;21.17;40.54;101865.92;;;;-46
2019/05/14 10:14:11;;;;;;;1.40;1.30;;;;;;;21.17;40.55;101861.98;;;;-45
2019/05/14 10:17:11;;;;;;;1.43;1.30;;;;;;;21.17;40.55;101858.91;;;;-45
2019/05/14 10:20:11;;;;;;;1.42;1.28;;;;;;;21.14;40.62;101859.28;;;;-40
2019/05/14 10:23:11;;;;;;;1.61;1.30;;;;;;;21.13;40.66;101848.76;;;;-40
2019/05/14 10:27:42;;;;;;;1.68;1.31;;;;;;;20.92;40.94;101848.09;;;;-57
2019/05/14 10:30:42;;;;;;;2.94;1.31;;;;;;;20.84;41.09;101846.42;;;;-50
2019/05/14 10:33:42;;;;;;;1.47;1.30;;;;;;;20.78;41.13;101845.57;;;;-56
2019/05/14 10:36:42;;;;;;;1.47;1.30;;;;;;;20.73;41.18;101840.23;;;;-56
2019/05/14 10:39:42;;;;;;;1.75;1.30;;;;;;;20.67;41.29;101840.36;;;;-58
2019/05/14 10:42:42;;;;;;;1.34;1.24;;;;;;;20.64;41.29;101834.95;;;;-57
2019/05/14 10:45:42;;;;;;;1.40;1.30;;;;;;;20.60;41.32;101828.44;;;;-58
2019/05/14 10:48:42;;;;;;;1.45;1.35;;;;;;;20.57;41.36;101824.50;;;;-57
2019/05/14 10:51:42;;;;;;;1.83;1.34;;;;;;;20.54;41.37;101826.16;;;;-58
2019/05/14 10:54:42;;;;;;;1.53;1.30;;;;;;;20.51;41.40;101821.61;;;;-57
2019/05/14 10:57:42;;;;;;;1.40;1.30;;;;;;;20.49;41.53;101820.59;;;;-51
2019/05/14 11:00:42;;;;;;;1.36;1.26;;;;;;;20.47;41.53;101823.88;;;;-50
2019/05/14 11:03:42;;;;;;;1.99;1.30;;;;;;;20.44;41.55;101811.72;;;;-51
2019/05/14 11:06:42;;;;;;;1.73;1.43;;;;;;;20.43;41.58;101806.69;;;;-50
2019/05/14 11:09:42;;;;;;;1.60;1.36;;;;;;;20.40;41.51;101797.04;;;;-58
2019/05/14 11:12:42;;;;;;;1.30;1.20;;;;;;;20.37;41.48;101804.91;;;;-58
2019/05/14 11:15:42;;;;;;;1.91;1.20;;;;;;;20.34;41.57;101805.89;;;;-58
2019/05/14 11:18:42;;;;;;;1.41;1.29;;;;;;;20.33;41.52;101807.73;;;;-58
2019/05/14 11:21:42;;;;;;;1.40;1.30;;;;;;;20.33;41.57;101800.23;;;;-58
2019/05/14 11:24:43;;;;;;;1.42;1.28;;;;;;;20.30;41.49;101794.17;;;;-57
2019/05/14 11:27:42;;;;;;;2.53;1.27;;;;;;;20.28;41.48;101791.81;;;;-51
2019/05/14 11:30:42;;;;;;;1.49;1.39;;;;;;;20.27;41.52;101791.91;;;;-52
2019/05/14 11:33:42;;;;;;;1.49;1.30;;;;;;;20.25;41.68;101794.08;;;;-51
2019/05/14 11:36:42;;;;;;;2.00;1.33;;;;;;;20.24;41.58;101792.51;;;;-51
2019/05/14 11:39:42;;;;;;;1.36;1.26;;;;;;;20.23;41.70;101783.72;;;;-52
2019/05/14 11:42:42;;;;;;;1.33;1.23;;;;;;;20.22;41.64;101780.24;;;;-52
2019/05/14 11:45:42;;;;;;;1.40;1.30;;;;;;;20.20;41.56;101769.33;;;;-50
2019/05/14 11:48:42;;;;;;;1.35;1.25;;;;;;;20.19;41.60;101776.37;;;;-50
2019/05/14 11:51:42;;;;;;;1.37;1.27;;;;;;;20.18;41.57;101762.33;;;;-50
2019/05/14 11:54:42;;;;;;;1.30;1.20;;;;;;;20.16;41.62;101765.77;;;;-50
2019/05/14 11:57:42;;;;;;;1.40;1.30;;;;;;;20.17;41.64;101759.08;;;;-50
2019/05/14 12:00:42;;;;;;;1.57;1.30;;;;;;;20.15;41.66;101755.37;;;;-58
2019/05/14 12:03:42;;;;;;;1.32;1.22;;;;;;;20.15;41.66;101740.43;;;;-51
2019/05/14 12:06:42;;;;;;;1.29;1.20;;;;;;;20.14;41.75;101749.43;;;;-51
2019/05/14 12:09:42;;;;;;;1.23;1.17;;;;;;;20.12;41.64;101751.61;;;;-50
2019/05/14 12:12:42;;;;;;;1.40;1.30;;;;;;;20.12;41.61;101757.96;;;;-50
2019/05/14 12:15:42;;;;;;;1.35;1.21;;;;;;;20.12;41.60;101756.63;;;;-50
2019/05/14 12:18:42;;;;;;;1.27;1.20;;;;;;;20.11;41.58;101751.42;;;;-50
2019/05/14 12:21:42;;;;;;;1.41;1.30;;;;;;;20.10;41.69;101748.69;;;;-50
2019/05/14 12:24:42;;;;;;;1.25;1.20;;;;;;;20.09;41.63;101747.45;;;;-50
2019/05/14 12:27:42;;;;;;;1.79;1.31;;;;;;;20.10;41.53;101742.81;;;;-48
2019/05/14 12:30:42;;;;;;;1.89;1.21;;;;;;;20.10;41.56;101733.70;;;;-48
2019/05/14 12:33:42;;;;;;;1.45;1.35;;;;;;;20.11;41.55;101738.11;;;;-49
2019/05/14 12:36:42;;;;;;;1.34;1.24;;;;;;;20.11;41.61;101737.95;;;;-50
2019/05/14 12:39:42;;;;;;;1.82;1.29;;;;;;;20.11;41.72;101726.78;;;;-51
2019/05/14 12:42:42;;;;;;;1.39;1.29;;;;;;;20.11;41.65;101723.42;;;;-51
2019/05/14 12:45:42;;;;;;;1.16;1.10;;;;;;;20.13;41.68;101726.22;;;;-50
2019/05/14 12:48:42;;;;;;;1.39;1.29;;;;;;;20.12;41.75;101717.39;;;;-50
2019/05/14 12:51:43;;;;;;;2.68;1.40;;;;;;;20.13;41.91;101709.73;;;;-48
2019/05/14 12:54:43;;;;;;;2.36;1.30;;;;;;;20.14;41.92;101710.45;;;;-50
2019/05/14 12:57:42;;;;;;;2.61;1.30;;;;;;;20.15;42.25;101703.80;;;;-50
2019/05/14 13:00:42;;;;;;;1.69;1.20;;;;;;;20.16;42.21;101706.62;;;;-52
2019/05/14 13:03:42;;;;;;;1.64;1.20;;;;;;;20.17;42.28;101698.13;;;;-55
2019/05/14 13:06:42;;;;;;;3.47;1.41;;;;;;;20.19;42.40;101695.05;;;;-56
2019/05/14 13:09:42;;;;;;;2.85;1.57;;;;;;;20.19;42.34;101694.22;;;;-56
2019/05/14 13:12:42;;;;;;;3.91;1.33;;;;;;;20.19;42.34;101686.17;;;;-56
2019/05/14 13:15:42;;;;;;;5.93;1.47;;;;;;;20.19;42.33;101681.14;;;;-54
2019/05/14 13:18:42;;;;;;;2.57;1.45;;;;;;;20.20;41.98;101687.23;;;;-59
2019/05/14 13:21:42;;;;;;;5.41;1.29;;;;;;;20.20;41.96;101684.88;;;;-54
2019/05/14 13:24:42;;;;;;;4.33;1.41;;;;;;;20.21;41.40;101683.77;;;;-53
2019/05/14 13:27:43;;;;;;;3.47;1.41;;;;;;;20.17;41.16;101685.61;;;;-54
2019/05/14 13:30:42;;;;;;;3.77;1.42;;;;;;;20.16;40.96;101667.55;;;;-52
2019/05/14 13:33:42;;;;;;;3.13;1.37;;;;;;;20.17;40.69;101662.34;;;;-50
2019/05/14 13:36:42;;;;;;;4.86;1.30;;;;;;;20.15;40.82;101656.34;;;;-62
2019/05/14 13:39:42;;;;;;;4.64;1.31;;;;;;;20.13;40.94;101669.30;;;;-55
2019/05/14 13:42:42;;;;;;;3.59;1.49;;;;;;;20.11;40.70;101652.81;;;;-51
2019/05/14 13:45:42;;;;;;;2.65;1.39;;;;;;;20.11;39.89;101651.13;;;;-51
2019/05/14 13:48:43;;;;;;;2.21;1.39;;;;;;;20.11;39.25;101659.67;;;;-53
2019/05/14 13:51:42;;;;;;;2.29;1.38;;;;;;;20.09;40.23;101646.93;;;;-53
2019/05/14 13:54:42;;;;;;;1.69;1.45;;;;;;;20.08;40.46;101644.06;;;;-54
2019/05/14 13:57:42;;;;;;;2.05;1.47;;;;;;;20.06;40.68;101649.52;;;;-54
2019/05/14 14:00:42;;;;;;;3.54;1.37;;;;;;;20.04;40.73;101639.57;;;;-54
2019/05/14 14:03:42;;;;;;;2.31;1.40;;;;;;;20.05;40.82;101638.85;;;;-54
2019/05/14 14:06:42;;;;;;;4.11;1.48;;;;;;;20.03;40.93;101638.95;;;;-53
2019/05/14 14:09:42;;;;;;;2.15;1.44;;;;;;;20.03;40.81;101630.34;;;;-54
2019/05/14 14:12:42;;;;;;;1.74;1.30;;;;;;;20.02;40.82;101634.43;;;;-53
2019/05/14 14:15:42;;;;;;;4.11;1.65;;;;;;;20.03;40.81;101626.31;;;;-52
2019/05/14 14:18:42;;;;;;;1.69;1.23;;;;;;;20.03;40.44;101625.14;;;;-53
2019/05/14 14:21:42;;;;;;;2.73;1.50;;;;;;;20.01;40.38;101623.47;;;;-52
2019/05/14 14:24:42;;;;;;;1.60;1.30;;;;;;;20.03;40.25;101628.33;;;;-53
2019/05/14 14:27:42;;;;;;;3.47;1.41;;;;;;;20.02;40.21;101634.19;;;;-54
2019/05/14 14:30:42;;;;;;;4.15;1.54;;;;;;;20.01;40.17;101627.83;;;;-53
2019/05/14 14:33:42;;;;;;;1.82;1.20;;;;;;;20.01;40.21;101625.19;;;;-52
2019/05/14 14:36:42;;;;;;;1.50;1.40;;;;;;;20.01;40.19;101626.41;;;;-53
2019/05/14 14:39:42;;;;;;;2.00;1.27;;;;;;;20.01;40.21;101617.02;;;;-54
2019/05/14 14:42:42;;;;;;;1.46;1.32;;;;;;;20.01;40.14;101617.81;;;;-57
2019/05/14 14:45:42;;;;;;;2.35;1.39;;;;;;;20.01;40.12;101615.07;;;;-56
2019/05/14 14:48:42;;;;;;;1.89;1.34;;;;;;;19.99;40.11;101611.03;;;;-54
2019/05/14 14:51:42;;;;;;;1.39;1.29;;;;;;;19.98;40.20;101610.73;;;;-55
2019/05/14 14:54:42;;;;;;;1.38;1.28;;;;;;;19.99;40.11;101613.83;;;;-60
2019/05/14 14:57:42;;;;;;;1.34;1.24;;;;;;;19.99;40.11;101607.63;;;;-60
2019/05/14 15:00:42;;;;;;;1.40;1.30;;;;;;;20.00;40.16;101604.50;;;;-53
2019/05/14 15:03:42;;;;;;;1.95;1.29;;;;;;;19.99;40.12;101604.83;;;;-55
2019/05/14 15:06:42;;;;;;;1.49;1.30;;;;;;;19.98;40.12;101600.74;;;;-54
2019/05/14 15:09:42;;;;;;;1.60;1.15;;;;;;;19.98;39.76;101599.32;;;;-59
2019/05/14 15:12:42;;;;;;;1.53;1.21;;;;;;;19.97;40.32;101594.33;;;;-59
2019/05/14 15:15:42;;;;;;;1.41;1.31;;;;;;;19.96;40.45;101597.62;;;;-58
2019/05/14 15:18:42;;;;;;;2.02;1.31;;;;;;;19.94;40.34;101598.12;;;;-59
2019/05/14 15:21:42;;;;;;;1.65;1.28;;;;;;;19.93;40.48;101592.92;;;;-59
2019/05/14 15:24:42;;;;;;;2.28;1.30;;;;;;;19.93;40.48;101592.64;;;;-59
2019/05/14 15:27:42;;;;;;;1.39;1.29;;;;;;;19.92;40.49;101596.94;;;;-59
2019/05/14 15:30:42;;;;;;;2.71;1.21;;;;;;;19.92;40.62;101593.19;;;;-58
2019/05/14 15:33:42;;;;;;;1.68;1.21;;;;;;;19.91;40.59;101591.39;;;;-57
2019/05/14 15:36:42;;;;;;;1.71;1.30;;;;;;;19.90;40.58;101597.69;;;;-59
2019/05/14 15:39:42;;;;;;;1.45;1.33;;;;;;;19.89;40.67;101592.61;;;;-58
2019/05/14 15:42:42;;;;;;;1.38;1.11;;;;;;;19.89;40.66;101593.45;;;;-59
2019/05/14 15:45:42;;;;;;;1.77;1.23;;;;;;;19.88;40.78;101591.94;;;;-58
2019/05/14 15:48:42;;;;;;;1.82;1.29;;;;;;;19.88;40.76;101595.30;;;;-57
2019/05/14 15:51:42;;;;;;;1.30;1.20;;;;;;;19.87;40.65;101590.42;;;;-59
2019/05/14 15:54:42;;;;;;;2.52;1.27;;;;;;;19.86;40.69;101587.57;;;;-58
2019/05/14 15:57:42;;;;;;;1.39;1.29;;;;;;;19.87;40.69;101581.59;;;;-59
2019/05/14 16:00:42;;;;;;;1.30;1.20;;;;;;;19.85;40.85;101572.53;;;;-58
2019/05/14 16:03:42;;;;;;;1.39;1.20;;;;;;;19.85;40.84;101571.25;;;;-58
2019/05/14 16:06:42;;;;;;;1.30;1.20;;;;;;;19.85;40.83;101571.64;;;;-59
2019/05/14 16:09:42;;;;;;;1.45;1.28;;;;;;;19.84;40.77;101571.01;;;;-59
2019/05/14 16:12:42;;;;;;;1.30;1.20;;;;;;;19.84;40.82;101571.58;;;;-58
2019/05/14 16:15:42;;;;;;;2.44;1.34;;;;;;;19.83;40.97;101578.99;;;;-51
2019/05/14 16:18:42;;;;;;;3.51;1.25;;;;;;;19.84;40.70;101571.02;;;;-56
2019/05/14 16:21:42;;;;;;;1.53;1.23;;;;;;;19.84;40.58;101567.27;;;;-63
2019/05/14 16:24:42;;;;;;;1.71;1.18;;;;;;;19.83;40.81;101566.36;;;;-61
2019/05/14 16:27:42;;;;;;;1.54;1.30;;;;;;;19.83;40.48;101558.33;;;;-60
2019/05/14 16:30:42;;;;;;;2.96;1.33;;;;;;;19.82;40.82;101560.61;;;;-60
2019/05/14 16:33:42;;;;;;;1.39;1.18;;;;;;;19.82;40.88;101554.23;;;;-60
2019/05/14 16:36:42;;;;;;;2.42;1.31;;;;;;;19.81;40.81;101562.13;;;;-61
2019/05/14 16:39:42;;;;;;;1.41;1.24;;;;;;;19.81;40.79;101563.06;;;;-61
2019/05/14 16:42:42;;;;;;;1.87;1.29;;;;;;;19.81;40.87;101557.86;;;;-54
2019/05/14 16:45:42;;;;;;;1.28;1.20;;;;;;;19.80;40.91;101560.98;;;;-54
2019/05/14 16:48:42;;;;;;;2.14;1.30;;;;;;;19.80;40.89;101560.48;;;;-54
2019/05/14 16:51:42;;;;;;;2.05;1.39;;;;;;;19.79;40.86;101561.94;;;;-54
2019/05/14 16:54:42;;;;;;;2.37;1.23;;;;;;;19.79;40.90;101560.66;;;;-54
2019/05/14 16:57:42;;;;;;;2.51;1.31;;;;;;;19.79;40.83;101555.72;;;;-54
2019/05/14 17:00:42;;;;;;;1.33;1.23;;;;;;;19.79;40.90;101563.28;;;;-54
2019/05/14 17:03:42;;;;;;;1.82;1.27;;;;;;;19.79;40.93;101562.26;;;;-55
2019/05/14 17:06:42;;;;;;;2.57;1.45;;;;;;;19.78;40.93;101564.38;;;;-56
2019/05/14 17:09:42;;;;;;;1.44;1.14;;;;;;;19.78;40.87;101566.23;;;;-57
2019/05/14 17:12:42;;;;;;;2.30;1.17;;;;;;;19.78;40.92;101567.12;;;;-61
2019/05/14 17:15:42;;;;;;;1.39;1.29;;;;;;;19.77;40.94;101560.13;;;;-61
2019/05/14 17:18:42;;;;;;;1.31;1.20;;;;;;;19.76;40.89;101559.47;;;;-61
2019/05/14 17:21:42;;;;;;;2.05;1.16;;;;;;;19.76;40.97;101559.58;;;;-61
2019/05/14 17:24:42;;;;;;;3.09;1.20;;;;;;;19.76;40.86;101559.91;;;;-62
2019/05/14 17:27:42;;;;;;;1.33;1.20;;;;;;;19.75;40.89;101555.83;;;;-61
2019/05/14 17:30:42;;;;;;;1.30;1.21;;;;;;;19.75;40.89;101559.44;;;;-56
2019/05/14 17:33:42;;;;;;;1.29;1.20;;;;;;;19.75;40.89;101560.45;;;;-60
2019/05/14 17:36:42;;;;;;;1.27;1.17;;;;;;;19.75;40.91;101559.73;;;;-60
2019/05/14 17:39:42;;;;;;;2.05;1.26;;;;;;;19.74;41.01;101563.52;;;;-61
2019/05/14 17:42:42;;;;;;;1.40;1.30;;;;;;;19.74;40.90;101560.39;;;;-62
2019/05/14 17:45:42;;;;;;;1.43;1.20;;;;;;;19.73;40.93;101559.77;;;;-56